Time;durP1;ratioP1;P1;durP2;ratioP2;P2;SDS_P1;SDS_P2;PMS_P1;PMS_P2;Temp;Humidity;BMP_temperature;BMP_pressure;BME280_temperature;BME280_humidity;BME280_pressure;Samples;Min_cycle;Max_cycle;Signal;HPM_P1;HPM_P2
2022/08/25 00:02:03;;;;;;;7.93;3.20;;;21.10;99.90;;;;;;5073023;28;20578;-71
2022/08/25 00:04:29;;;;;;;4.50;3.33;;;21.20;99.90;;;;;;5072739;28;20654;-71
2022/08/25 00:06:56;;;;;;;4.20;2.93;;;21.30;99.90;;;;;;5072901;28;21183;-71
2022/08/25 00:09:26;;;;;;;3.07;2.73;;;21.30;99.90;;;;;;5073200;28;20553;-71
2022/08/25 00:11:53;;;;;;;3.03;2.83;;;21.30;99.90;;;;;;5072906;28;20701;-71
2022/08/25 00:14:23;;;;;;;4.73;2.73;;;21.30;99.90;;;;;;5072781;28;21113;-71
2022/08/25 00:16:50;;;;;;;8.00;3.00;;;21.40;99.90;;;;;;5073149;28;20578;-71
2022/08/25 00:19:25;;;;;;;3.27;3.10;;;21.40;99.90;;;;;;5073106;28;20672;-70
2022/08/25 00:21:52;;;;;;;6.07;3.50;;;21.40;99.90;;;;;;5072628;28;20605;-71
2022/08/25 00:24:20;;;;;;;3.63;3.43;;;21.40;99.90;;;;;;5072951;28;20695;-71
2022/08/25 00:26:51;;;;;;;5.10;3.20;;;21.30;99.90;;;;;;5072675;28;20569;-71
2022/08/25 00:29:17;;;;;;;4.17;3.70;;;21.30;99.90;;;;;;5072743;28;20626;-71
2022/08/25 00:31:44;;;;;;;3.40;3.20;;;21.30;99.90;;;;;;5072691;28;20665;-71
2022/08/25 00:34:17;;;;;;;3.33;3.13;;;21.30;99.90;;;;;;5072952;28;20679;-71
2022/08/25 00:36:45;;;;;;;3.90;3.60;;;21.20;99.90;;;;;;5072574;28;20999;-71
2022/08/25 00:39:12;;;;;;;4.07;3.67;;;21.20;99.90;;;;;;5072517;28;21012;-71
2022/08/25 00:41:41;;;;;;;3.73;3.33;;;21.30;99.90;;;;;;5072484;28;20597;-71
2022/08/25 00:44:11;;;;;;;4.10;3.70;;;21.30;99.90;;;;;;5071189;28;20593;-71
2022/08/25 00:46:45;;;;;;;5.30;3.43;;;21.30;99.90;;;;;;5072497;28;20636;-71
2022/08/25 00:49:24;;;;;;;3.60;3.30;;;21.30;99.90;;;;;;5073082;28;20628;-71
2022/08/25 00:52:13;;;;;;;4.40;2.90;;;21.30;99.90;;;;;;5076290;28;21012;-71
2022/08/25 00:54:50;;;;;;;5.60;3.50;;;21.20;99.90;;;;;;5076645;28;20986;-71
2022/08/25 00:57:21;;;;;;;3.10;2.90;;;21.20;99.90;;;;;;5076433;28;20623;-71
2022/08/25 00:59:48;;;;;;;3.00;2.80;;;21.10;99.90;;;;;;5076364;28;20997;-71
2022/08/25 01:02:15;;;;;;;3.63;3.33;;;21.10;99.90;;;;;;5076208;28;20631;-73
2022/08/25 01:04:44;;;;;;;3.60;3.40;;;21.10;99.90;;;;;;5074847;28;20685;-73
2022/08/25 01:07:12;;;;;;;5.63;3.70;;;21.00;99.90;;;;;;5075741;28;20656;-73
2022/08/25 01:09:38;;;;;;;3.63;3.20;;;21.00;99.90;;;;;;5076088;28;20628;-73
2022/08/25 01:12:05;;;;;;;3.60;3.40;;;21.00;99.90;;;;;;5075972;28;20650;-73
2022/08/25 01:14:33;;;;;;;3.53;3.33;;;20.90;99.90;;;;;;5075514;28;21183;-72
2022/08/25 01:17:00;;;;;;;3.20;2.90;;;20.90;99.90;;;;;;5076177;28;20557;-73
2022/08/25 01:19:28;;;;;;;5.77;4.10;;;20.80;99.90;;;;;;5076145;28;20689;-73
2022/08/25 01:21:55;;;;;;;3.57;3.30;;;20.90;99.90;;;;;;5075436;28;21147;-72
2022/08/25 01:24:33;;;;;;;4.30;3.50;;;20.80;99.90;;;;;;5075871;28;21048;-72
2022/08/25 01:27:00;;;;;;;3.53;3.23;;;20.80;99.90;;;;;;5075905;28;20574;-73
2022/08/25 01:29:28;;;;;;;3.20;2.90;;;20.80;99.90;;;;;;5075916;28;20958;-72
2022/08/25 01:31:58;;;;;;;5.53;3.30;;;20.80;99.90;;;;;;5075469;28;21035;-72
2022/08/25 01:34:28;;;;;;;3.93;3.57;;;20.80;99.90;;;;;;5075878;28;20566;-72
2022/08/25 01:36:56;;;;;;;3.80;3.50;;;20.80;99.90;;;;;;5075468;28;20581;-73
2022/08/25 01:39:23;;;;;;;5.50;3.80;;;20.80;99.90;;;;;;5075454;28;20968;-72
2022/08/25 01:41:57;;;;;;;4.10;3.37;;;20.70;99.90;;;;;;5075931;28;20648;-73
2022/08/25 01:44:24;;;;;;;3.80;3.40;;;20.70;99.90;;;;;;5075156;28;20622;-73
2022/08/25 01:46:52;;;;;;;3.93;3.63;;;20.60;99.90;;;;;;5074988;28;20763;-72
2022/08/25 01:49:18;;;;;;;3.50;3.30;;;20.60;99.90;;;;;;5075729;28;20578;-72
2022/08/25 01:51:54;;;;;;;3.87;3.57;;;20.50;99.90;;;;;;5075522;28;20702;-72
2022/08/25 01:54:20;;;;;;;5.23;3.70;;;20.50;99.90;;;;;;5075640;28;20635;-72
2022/08/25 01:56:47;;;;;;;4.30;4.00;;;20.50;99.90;;;;;;5075240;28;20609;-72
2022/08/25 01:59:16;;;;;;;4.17;3.73;;;20.40;99.90;;;;;;5075431;28;20621;-73
2022/08/25 02:01:43;;;;;;;3.50;3.10;;;20.50;99.90;;;;;;5074274;28;20622;-72
2022/08/25 02:04:09;;;;;;;12.23;3.83;;;20.40;99.90;;;;;;5075095;28;20642;-72
2022/08/25 02:06:35;;;;;;;6.03;3.77;;;20.40;99.90;;;;;;5075427;28;20578;-72
2022/08/25 02:09:09;;;;;;;3.43;3.10;;;20.40;99.90;;;;;;5074894;28;20659;-72
2022/08/25 02:11:37;;;;;;;3.50;3.20;;;20.40;99.90;;;;;;5075188;28;20655;-72
2022/08/25 02:14:05;;;;;;;4.40;4.03;;;20.30;99.90;;;;;;5074671;28;21011;-73
2022/08/25 02:16:35;;;;;;;3.77;3.53;;;20.30;99.90;;;;;;5074756;28;21100;-73
2022/08/25 02:19:07;;;;;;;10.37;4.33;;;20.20;99.90;;;;;;5074209;28;21242;-72
2022/08/25 02:21:35;;;;;;;4.03;3.73;;;20.20;99.90;;;;;;5074820;28;20913;-72
2022/08/25 02:24:03;;;;;;;10.13;3.33;;;20.20;99.90;;;;;;5074846;28;20688;-73
2022/08/25 02:26:30;;;;;;;4.67;3.47;;;20.20;99.90;;;;;;5074733;28;20823;-72
2022/08/25 02:28:56;;;;;;;3.83;3.50;;;20.20;99.90;;;;;;5074798;28;20598;-72
2022/08/25 02:31:24;;;;;;;7.63;3.67;;;20.20;99.90;;;;;;5074772;28;20710;-73
2022/08/25 02:33:51;;;;;;;3.50;3.30;;;20.10;99.90;;;;;;5074408;28;21023;-73
2022/08/25 02:36:18;;;;;;;3.87;3.47;;;20.00;99.90;;;;;;5074956;28;20647;-74
2022/08/25 02:38:45;;;;;;;4.50;4.20;;;20.00;99.90;;;;;;5074327;28;20618;-72
2022/08/25 02:41:15;;;;;;;4.63;3.90;;;20.00;99.90;;;;;;5074425;28;20611;-72
2022/08/25 02:43:43;;;;;;;4.30;3.90;;;20.00;99.90;;;;;;5074345;28;20667;-72
2022/08/25 02:46:10;;;;;;;4.00;3.73;;;20.00;99.90;;;;;;5074479;28;21180;-72
2022/08/25 02:48:37;;;;;;;4.70;4.07;;;20.00;99.90;;;;;;5074576;28;20655;-72
2022/08/25 02:51:06;;;;;;;6.17;4.27;;;19.90;99.90;;;;;;5074482;28;20613;-72
2022/08/25 02:53:33;;;;;;;6.23;4.00;;;19.90;99.90;;;;;;5074101;28;20622;-72
2022/08/25 02:56:00;;;;;;;5.73;4.53;;;19.90;99.90;;;;;;5074335;28;20606;-72
2022/08/25 02:58:27;;;;;;;4.70;4.30;;;19.90;99.90;;;;;;5074017;28;20967;-72
2022/08/25 03:00:55;;;;;;;4.07;3.80;;;20.00;99.90;;;;;;5073905;28;20622;-72
2022/08/25 03:03:21;;;;;;;4.73;4.33;;;20.00;99.90;;;;;;5073703;28;20622;-72
2022/08/25 03:05:48;;;;;;;4.87;4.37;;;20.00;99.90;;;;;;5074167;28;20585;-73
2022/08/25 03:08:15;;;;;;;6.53;4.23;;;20.00;99.90;;;;;;5073425;28;20630;-72
2022/08/25 03:10:41;;;;;;;4.90;4.60;;;20.00;99.90;;;;;;5073674;28;21152;-72
2022/08/25 03:13:08;;;;;;;5.37;4.40;;;20.00;99.90;;;;;;5073819;28;21011;-72
2022/08/25 03:15:36;;;;;;;4.40;4.10;;;20.00;99.90;;;;;;5073490;28;21140;-72
2022/08/25 03:18:04;;;;;;;4.53;4.13;;;20.00;99.90;;;;;;5073393;28;21026;-72
2022/08/25 03:20:32;;;;;;;6.03;3.70;;;20.00;99.90;;;;;;5073449;28;21139;-72
2022/08/25 03:22:58;;;;;;;4.67;4.23;;;20.00;99.90;;;;;;5073874;28;20561;-72
2022/08/25 03:28:09;;;;;;;4.37;4.03;;;19.90;99.90;;;;;;5073511;28;20581;-73
2022/08/25 03:30:36;;;;;;;4.30;3.90;;;19.90;99.90;;;;;;5071678;28;21237;-73
2022/08/25 03:33:02;;;;;;;7.50;4.20;;;19.90;99.90;;;;;;5073431;28;20630;-73
2022/08/25 03:35:29;;;;;;;4.87;4.57;;;19.90;99.90;;;;;;5073745;28;20575;-72
2022/08/25 03:37:58;;;;;;;4.63;4.23;;;19.80;99.90;;;;;;5073650;28;20632;-72
2022/08/25 03:40:25;;;;;;;5.80;5.07;;;19.80;99.90;;;;;;5072056;28;20578;-72
2022/08/25 03:42:54;;;;;;;8.10;5.40;;;19.90;99.90;;;;;;5073536;28;20610;-72
2022/08/25 03:45:21;;;;;;;5.50;5.00;;;19.80;99.90;;;;;;5072984;28;20622;-72
2022/08/25 03:47:48;;;;;;;9.37;4.70;;;19.90;99.90;;;;;;5072711;28;20990;-72
2022/08/25 03:50:17;;;;;;;12.17;4.70;;;19.80;99.90;;;;;;5071429;28;20679;-73
2022/08/25 03:52:44;;;;;;;4.67;4.27;;;19.80;99.90;;;;;;5073277;28;20638;-73
2022/08/25 03:55:13;;;;;;;5.30;4.80;;;19.80;99.90;;;;;;5073263;28;20618;-72
2022/08/25 03:57:39;;;;;;;5.17;4.77;;;19.90;99.90;;;;;;5073268;28;20682;-73
2022/08/25 04:00:08;;;;;;;5.60;5.10;;;19.80;99.90;;;;;;5073353;28;20570;-73
2022/08/25 04:02:34;;;;;;;6.17;4.63;;;19.80;99.90;;;;;;5073262;28;21156;-73
2022/08/25 04:05:01;;;;;;;5.17;4.87;;;19.80;99.90;;;;;;5071785;28;20957;-73
2022/08/25 04:07:28;;;;;;;9.63;6.80;;;19.80;99.90;;;;;;5073365;28;20578;-71
2022/08/25 04:09:55;;;;;;;8.70;5.53;;;19.70;99.90;;;;;;5071644;28;20587;-71
2022/08/25 04:12:21;;;;;;;6.97;5.90;;;19.70;99.90;;;;;;5071692;28;20668;-71
2022/08/25 04:14:48;;;;;;;10.30;5.63;;;19.60;99.90;;;;;;5072838;28;20628;-74
2022/08/25 04:17:15;;;;;;;8.23;5.73;;;19.60;99.90;;;;;;5072853;28;20637;-71
2022/08/25 04:19:42;;;;;;;6.00;5.30;;;19.60;99.90;;;;;;5072871;28;21006;-71
2022/08/25 04:22:08;;;;;;;6.03;5.43;;;19.60;99.90;;;;;;5073126;28;20574;-71
2022/08/25 04:24:35;;;;;;;7.10;5.40;;;19.60;99.90;;;;;;5072142;28;21209;-71
2022/08/25 04:27:01;;;;;;;5.87;5.27;;;19.50;99.90;;;;;;5072951;28;20628;-71
2022/08/25 04:29:28;;;;;;;7.90;5.73;;;19.50;99.90;;;;;;5072621;28;20571;-71
2022/08/25 04:31:54;;;;;;;7.33;5.50;;;19.40;99.90;;;;;;5072549;28;20586;-71
2022/08/25 04:34:23;;;;;;;13.93;6.40;;;19.40;99.90;;;;;;5072831;28;20618;-71
2022/08/25 04:36:50;;;;;;;13.13;6.13;;;19.30;99.90;;;;;;5073021;28;20582;-71
2022/08/25 04:39:19;;;;;;;5.90;5.30;;;19.30;99.90;;;;;;5072567;28;20581;-71
2022/08/25 04:41:46;;;;;;;8.63;5.83;;;19.30;99.90;;;;;;5072604;28;21108;-71
2022/08/25 04:44:13;;;;;;;8.87;6.17;;;19.30;99.90;;;;;;5072436;28;20631;-71
2022/08/25 04:46:40;;;;;;;6.37;5.80;;;19.40;99.90;;;;;;5072735;28;20630;-72
2022/08/25 04:49:06;;;;;;;6.07;5.60;;;19.40;99.90;;;;;;5072528;28;20571;-71
2022/08/25 04:51:38;;;;;;;9.17;6.80;;;19.50;99.90;;;;;;5072423;28;20625;-71
2022/08/25 04:54:10;;;;;;;7.93;6.20;;;19.50;99.90;;;;;;5072088;28;20693;-71
2022/08/25 04:56:40;;;;;;;7.30;6.60;;;19.50;99.90;;;;;;5072347;28;20626;-71
2022/08/25 04:59:10;;;;;;;11.53;6.83;;;19.50;99.90;;;;;;5072397;28;20619;-71
2022/08/25 05:01:38;;;;;;;7.17;6.47;;;19.60;99.90;;;;;;5072227;28;20626;-71
2022/08/25 05:04:07;;;;;;;7.80;7.10;;;19.70;99.90;;;;;;5072268;28;21039;-71
2022/08/25 05:06:34;;;;;;;6.73;6.03;;;19.70;99.90;;;;;;5072383;28;20575;-72
2022/08/25 05:09:02;;;;;;;8.27;6.10;;;19.70;99.90;;;;;;5072174;28;20589;-71
2022/08/25 05:11:29;;;;;;;7.20;6.50;;;19.80;99.90;;;;;;5071832;28;20626;-71
2022/08/25 05:13:57;;;;;;;9.40;6.60;;;19.80;99.90;;;;;;5072181;28;20612;-71
2022/08/25 05:16:25;;;;;;;9.90;6.20;;;19.80;99.90;;;;;;5072074;28;20575;-71
2022/08/25 05:18:52;;;;;;;6.40;5.93;;;19.90;99.90;;;;;;5072290;28;20639;-71
2022/08/25 05:21:25;;;;;;;6.83;6.20;;;19.90;99.90;;;;;;5072411;28;20578;-72
2022/08/25 05:23:59;;;;;;;12.77;7.03;;;19.90;99.90;;;;;;5071904;28;20642;-72
2022/08/25 05:26:29;;;;;;;8.10;6.00;;;20.00;99.90;;;;;;5072025;28;20574;-72
2022/08/25 05:28:57;;;;;;;8.57;7.13;;;20.10;99.90;;;;;;5071908;28;20980;-71
2022/08/25 05:31:24;;;;;;;7.57;6.87;;;20.20;99.90;;;;;;5072074;28;20545;-71
2022/08/25 05:33:52;;;;;;;7.20;6.50;;;20.20;99.90;;;;;;5071898;28;20656;-71
2022/08/25 05:36:20;;;;;;;7.70;7.00;;;20.30;99.90;;;;;;5072532;28;20574;-71
2022/08/25 05:38:46;;;;;;;9.23;6.23;;;20.30;99.90;;;;;;5075566;28;20999;-71
2022/08/25 05:41:16;;;;;;;7.33;6.73;;;20.40;99.90;;;;;;5075786;28;20654;-71
2022/08/25 05:43:45;;;;;;;8.57;7.37;;;20.30;99.90;;;;;;5075473;28;21168;-71
2022/08/25 05:46:12;;;;;;;8.17;7.27;;;20.40;99.90;;;;;;5075748;28;20643;-71
2022/08/25 05:48:39;;;;;;;7.10;6.50;;;20.50;99.90;;;;;;5075623;28;20669;-72
2022/08/25 05:51:09;;;;;;;10.00;7.57;;;20.60;99.90;;;;;;5075729;28;20571;-71
2022/08/25 05:53:36;;;;;;;11.23;7.53;;;20.60;99.90;;;;;;5074966;28;20712;-71
2022/08/25 05:56:03;;;;;;;7.50;6.80;;;20.70;99.90;;;;;;5075235;28;20575;-72
2022/08/25 05:58:30;;;;;;;9.63;6.97;;;20.80;99.90;;;;;;5074844;28;21030;-72
2022/08/25 06:02:39;;;;;;;8.23;7.13;;;20.80;99.90;;;;;;5075519;28;20570;-72
2022/08/25 06:03:46;;;;;;;7.53;6.27;;;20.80;99.90;;;;;;5075225;28;20649;-72
2022/08/25 06:06:14;;;;;;;9.13;6.43;;;21.00;99.90;;;;;;5075005;28;20625;-72
2022/08/25 06:08:43;;;;;;;6.97;6.33;;;21.00;99.90;;;;;;5075281;28;20691;-72
2022/08/25 06:11:11;;;;;;;6.77;6.27;;;21.10;99.90;;;;;;5075401;28;21135;-72
2022/08/25 06:13:38;;;;;;;6.57;5.97;;;21.10;99.90;;;;;;5075288;28;20715;-72
2022/08/25 06:16:04;;;;;;;9.10;7.20;;;21.10;99.90;;;;;;5075360;28;20622;-72
2022/08/25 06:18:31;;;;;;;7.67;6.97;;;21.10;99.90;;;;;;5075489;28;20667;-72
2022/08/25 06:20:57;;;;;;;12.00;7.37;;;21.20;99.90;;;;;;5075356;28;20559;-72
2022/08/25 06:23:24;;;;;;;8.30;7.50;;;21.30;99.90;;;;;;5074937;28;20652;-72
2022/08/25 06:25:53;;;;;;;7.87;7.07;;;21.40;99.90;;;;;;5073900;28;20684;-72
2022/08/25 06:28:20;;;;;;;26.27;8.00;;;21.40;99.90;;;;;;5074881;28;20623;-72
2022/08/25 06:30:47;;;;;;;7.27;6.67;;;21.60;99.90;;;;;;5075231;28;20598;-73
2022/08/25 06:33:14;;;;;;;10.10;7.57;;;21.80;99.90;;;;;;5074224;28;20727;-72
2022/08/25 06:35:41;;;;;;;10.77;6.77;;;21.70;99.90;;;;;;5075129;28;20573;-72
2022/08/25 06:38:09;;;;;;;7.07;6.47;;;21.80;99.90;;;;;;5075200;28;20635;-72
2022/08/25 06:40:35;;;;;;;7.30;6.70;;;22.00;99.90;;;;;;5074526;28;20618;-72
2022/08/25 06:43:05;;;;;;;13.90;6.57;;;22.10;99.90;;;;;;5073585;28;20578;-72
2022/08/25 06:45:31;;;;;;;7.63;6.93;;;22.00;99.90;;;;;;5074476;28;20613;-73
2022/08/25 06:47:58;;;;;;;8.13;7.33;;;22.20;99.90;;;;;;5074149;28;21097;-76
2022/08/25 06:50:24;;;;;;;10.00;7.13;;;22.30;99.90;;;;;;5074273;28;20622;-72
2022/08/25 06:52:51;;;;;;;10.73;7.20;;;22.50;99.90;;;;;;5074653;28;20622;-73
2022/08/25 06:55:17;;;;;;;8.70;7.60;;;22.70;99.90;;;;;;5074203;28;21016;-72
2022/08/25 06:57:44;;;;;;;7.07;6.10;;;22.90;99.90;;;;;;5074175;28;20574;-72
2022/08/25 07:00:11;;;;;;;10.47;7.20;;;22.90;99.90;;;;;;5074335;28;20611;-72
2022/08/25 07:02:37;;;;;;;10.33;6.63;;;22.90;99.90;;;;;;5074033;28;20634;-72
2022/08/25 07:05:05;;;;;;;8.33;7.40;;;22.70;99.90;;;;;;5073925;28;21220;-72
2022/08/25 07:07:32;;;;;;;8.43;7.73;;;22.70;99.90;;;;;;5072655;28;20986;-72
2022/08/25 07:09:58;;;;;;;7.60;6.90;;;22.80;99.90;;;;;;5073879;28;20622;-72
2022/08/25 07:12:24;;;;;;;9.27;7.10;;;23.00;99.90;;;;;;5073273;28;20613;-72
2022/08/25 07:14:51;;;;;;;7.73;7.00;;;23.00;99.90;;;;;;5074220;28;21027;-72
2022/08/25 07:17:18;;;;;;;8.17;7.47;;;23.10;99.90;;;;;;5074138;28;20589;-72
2022/08/25 07:19:44;;;;;;;7.13;6.63;;;23.20;99.90;;;;;;5073912;28;20622;-72
2022/08/25 07:22:11;;;;;;;8.10;6.20;;;23.30;99.90;;;;;;5073886;28;20632;-72
2022/08/25 07:24:37;;;;;;;8.97;8.07;;;23.40;99.90;;;;;;5073757;28;20630;-72
2022/08/25 07:27:04;;;;;;;12.73;6.80;;;23.30;99.90;;;;;;5073951;28;20637;-72
2022/08/25 07:29:32;;;;;;;8.10;7.30;;;23.30;99.90;;;;;;5073620;28;20633;-72
2022/08/25 07:32:02;;;;;;;9.40;7.37;;;23.40;99.90;;;;;;5073604;28;21168;-72
2022/08/25 07:37:13;;;;;;;7.13;6.63;;;23.70;99.90;;;;;;5073744;28;21137;-72
2022/08/25 07:39:41;;;;;;;8.20;7.40;;;23.50;99.90;;;;;;5072770;28;20652;-72
2022/08/25 07:42:08;;;;;;;17.00;7.33;;;23.70;99.90;;;;;;5073687;28;20612;-72
2022/08/25 07:44:34;;;;;;;8.90;8.00;;;23.70;99.90;;;;;;5073548;28;20606;-72
2022/08/25 07:47:01;;;;;;;8.33;7.63;;;23.80;99.90;;;;;;5073688;28;20636;-72
2022/08/25 07:49:27;;;;;;;10.83;8.20;;;23.70;99.90;;;;;;5073186;28;20940;-72
2022/08/25 07:51:54;;;;;;;7.27;6.60;;;23.90;99.90;;;;;;5073864;28;20704;-72
2022/08/25 07:54:21;;;;;;;7.60;6.60;;;24.20;99.90;;;;;;5073777;28;20722;-72
2022/08/25 07:56:48;;;;;;;8.27;7.67;;;24.10;99.90;;;;;;5073134;28;20621;-72
2022/08/25 07:59:14;;;;;;;10.33;8.20;;;24.30;99.90;;;;;;5073148;28;20583;-72
2022/08/25 08:01:41;;;;;;;7.77;7.07;;;24.50;99.90;;;;;;5073352;28;20639;-73
2022/08/25 08:04:08;;;;;;;7.40;5.97;;;24.50;99.90;;;;;;5073232;28;20633;-73
2022/08/25 08:06:34;;;;;;;7.73;7.00;;;24.60;99.90;;;;;;5073667;28;20630;-73
2022/08/25 08:09:01;;;;;;;10.50;6.67;;;24.60;99.90;;;;;;5073587;28;20613;-73
2022/08/25 08:11:32;;;;;;;7.00;6.40;;;24.70;99.90;;;;;;5073661;28;21114;-73
2022/08/25 08:14:00;;;;;;;7.60;7.00;;;25.00;99.90;;;;;;5073260;28;21232;-73
2022/08/25 08:16:29;;;;;;;6.57;5.87;;;25.00;99.90;;;;;;5073541;28;20581;-73
2022/08/25 08:18:57;;;;;;;7.03;6.30;;;25.10;99.90;;;;;;5071643;28;20619;-73
2022/08/25 08:21:27;;;;;;;6.00;5.60;;;25.30;99.90;;;;;;5073567;28;20626;-73
2022/08/25 08:23:55;;;;;;;9.77;7.53;;;25.50;99.90;;;;;;5073444;28;20645;-71
2022/08/25 08:26:22;;;;;;;7.53;6.57;;;25.40;99.90;;;;;;5073243;28;20611;-72
2022/08/25 08:28:50;;;;;;;8.33;6.33;;;25.50;99.90;;;;;;5072718;28;20626;-72
2022/08/25 08:31:20;;;;;;;5.97;5.50;;;25.70;99.90;;;;;;5072764;28;20660;-71
2022/08/25 08:33:48;;;;;;;16.23;8.47;;;25.70;99.90;;;;;;5072694;28;21203;-71
2022/08/25 08:36:14;;;;;;;6.80;6.30;;;25.80;99.90;;;;;;5073089;28;20578;-71
2022/08/25 08:38:42;;;;;;;9.87;6.63;;;25.80;99.90;;;;;;5072650;28;21164;-71
2022/08/25 08:44:38;;;;;;;7.30;6.70;;;26.10;99.90;;;;;;5073031;28;20581;-72
2022/08/25 08:47:16;;;;;;;7.40;6.67;;;26.20;99.90;;;;;;5073306;28;20583;-72
2022/08/25 08:50:01;;;;;;;6.60;6.07;;;26.20;99.90;;;;;;5072951;28;20626;-72
2022/08/25 08:52:50;;;;;;;6.30;5.90;;;26.40;99.90;;;;;;5073349;28;20575;-72
2022/08/25 08:55:56;;;;;;;7.67;6.90;;;26.40;99.90;;;;;;5066312;28;20674;-71
2022/08/25 08:58:38;;;;;;;6.33;5.77;;;26.10;99.90;;;;;;5066604;28;20990;-72
2022/08/25 09:01:06;;;;;;;7.80;6.90;;;26.10;99.90;;;;;;5071561;28;20626;-72
2022/08/25 09:03:38;;;;;;;6.70;6.10;;;26.60;99.90;;;;;;5073057;28;20607;-73
2022/08/25 09:06:22;;;;;;;6.87;6.37;;;26.70;99.90;;;;;;5072664;28;20578;-72
2022/08/25 09:08:50;;;;;;;13.07;6.33;;;26.70;99.90;;;;;;5073260;28;20577;-72
2022/08/25 09:11:24;;;;;;;7.07;5.97;;;26.70;99.90;;;;;;5073446;28;21017;-72
2022/08/25 09:14:13;;;;;;;7.73;6.13;;;26.90;99.90;;;;;;5076036;28;20660;-72
2022/08/25 09:17:04;;;;;;;7.53;6.83;;;26.80;99.90;;;;;;5076457;28;20652;-72
2022/08/25 09:20:04;;;;;;;12.13;7.20;;;27.10;99.90;;;;;;5076532;28;20578;-72
2022/08/25 09:22:42;;;;;;;6.17;5.67;;;27.00;99.90;;;;;;5052964;28;21063;-72
2022/08/25 09:25:29;;;;;;;9.83;6.40;;;27.20;99.90;;;;;;5076148;28;20642;-72
2022/08/25 09:28:05;;;;;;;6.70;5.70;;;27.40;99.90;;;;;;5076289;28;20987;-72
2022/08/25 09:30:46;;;;;;;5.83;5.33;;;27.20;99.90;;;;;;5075845;28;20635;-72
2022/08/25 09:33:19;;;;;;;7.00;5.47;;;27.40;99.90;;;;;;5075254;28;20632;-72
2022/08/25 09:35:46;;;;;;;5.30;4.90;;;27.30;99.90;;;;;;5076043;28;20570;-72
2022/08/25 09:38:13;;;;;;;6.93;6.10;;;27.20;99.90;;;;;;5076041;28;20623;-72
2022/08/25 09:40:49;;;;;;;7.27;5.57;;;27.60;99.90;;;;;;5075965;28;20578;-73
2022/08/25 09:43:41;;;;;;;7.80;6.13;;;27.30;99.90;;;;;;5072140;28;20692;-72
2022/08/25 09:46:10;;;;;;;5.80;5.27;;;27.40;99.90;;;;;;5075930;28;20663;-72
2022/08/25 09:48:48;;;;;;;6.40;5.90;;;27.70;99.90;;;;;;5075833;28;20632;-72
2022/08/25 09:51:33;;;;;;;6.57;6.00;;;27.90;99.90;;;;;;5076008;28;20609;-72
2022/08/25 09:54:14;;;;;;;5.33;4.93;;;28.00;99.90;;;;;;5075856;28;20764;-72
2022/08/25 09:57:07;;;;;;;7.33;5.13;;;28.00;99.90;;;;;;5075607;28;20619;-72
2022/08/25 09:59:36;;;;;;;5.17;4.67;;;28.00;99.90;;;;;;5073563;28;21188;-72
2022/08/25 10:02:26;;;;;;;5.10;4.80;;;28.10;99.90;;;;;;5073650;28;20621;-72
2022/08/25 10:04:53;;;;;;;5.17;4.70;;;28.60;99.90;;;;;;5074876;28;20654;-72
2022/08/25 10:07:34;;;;;;;5.63;4.27;;;28.30;99.90;;;;;;5075368;28;21125;-73
2022/08/25 10:10:14;;;;;;;7.17;4.77;;;28.60;99.90;;;;;;5075680;28;20581;-73
2022/08/25 10:12:46;;;;;;;5.47;4.70;;;28.80;99.90;;;;;;5075433;28;20593;-72
2022/08/25 10:15:25;;;;;;;5.20;4.80;;;28.00;99.90;;;;;;5075192;28;20672;-72
2022/08/25 10:17:53;;;;;;;5.40;4.30;;;27.80;99.90;;;;;;5075301;28;20616;-72
2022/08/25 10:20:23;;;;;;;4.47;4.20;;;28.40;99.90;;;;;;5075057;28;20614;-72
2022/08/25 10:22:50;;;;;;;4.77;4.30;;;28.30;99.90;;;;;;5074325;28;20602;-72
2022/08/25 10:25:26;;;;;;;7.10;4.50;;;28.50;99.90;;;;;;5075009;28;20653;-73
2022/08/25 10:28:28;;;;;;;4.63;4.33;;;28.70;99.90;;;;;;5075256;28;20578;-73
2022/08/25 10:31:03;;;;;;;5.20;4.80;;;28.90;99.90;;;;;;5074994;28;20651;-72
2022/08/25 10:33:29;;;;;;;6.17;4.07;;;28.90;99.90;;;;;;5074137;28;20624;-72
2022/08/25 10:36:19;;;;;;;6.03;4.67;;;28.90;99.90;;;;;;5074367;28;20610;-73
2022/08/25 10:38:55;;;;;;;5.17;4.87;;;29.00;99.90;;;;;;5074735;28;20589;-73
2022/08/25 10:41:41;;;;;;;5.10;4.70;;;29.30;99.90;;;;;;5074608;28;20628;-72
2022/08/25 10:47:42;;;;;;;4.50;4.20;;;29.30;99.90;;;;;;5074625;28;21201;-73
2022/08/25 10:50:28;;;;;;;4.50;4.10;;;29.40;99.90;;;;;;5074781;28;20574;-73
2022/08/25 10:53:18;;;;;;;5.13;4.70;;;29.00;99.90;;;;;;5074993;28;21022;-72
2022/08/25 10:56:02;;;;;;;6.50;4.90;;;29.10;99.90;;;;;;5074527;28;20639;-73
2022/08/25 10:58:37;;;;;;;5.93;5.40;;;29.20;99.90;;;;;;5074457;28;20590;-72
2022/08/25 11:01:26;;;;;;;7.03;5.20;;;29.00;99.90;;;;;;5074854;28;20597;-72
2022/08/25 11:04:11;;;;;;;4.83;4.53;;;29.20;99.90;;;;;;5074147;28;20649;-72
2022/08/25 11:06:52;;;;;;;5.00;4.50;;;29.70;99.90;;;;;;5074365;28;20590;-73
2022/08/25 11:09:24;;;;;;;4.30;4.00;;;30.30;99.90;;;;;;5074231;28;20583;-73
2022/08/25 11:12:00;;;;;;;4.90;4.60;;;29.80;99.90;;;;;;5074897;28;20982;-73
2022/08/25 11:14:37;;;;;;;5.23;4.73;;;30.00;99.90;;;;;;5074464;28;20648;-72
2022/08/25 11:17:12;;;;;;;5.23;4.93;;;30.40;99.90;;;;;;5073923;28;20566;-72
2022/08/25 11:19:44;;;;;;;5.70;5.33;;;31.00;99.90;;;;;;5074541;28;20577;-72
2022/08/25 11:22:31;;;;;;;6.40;5.53;;;31.00;99.90;;;;;;5074213;28;20716;-72
2022/08/25 11:25:24;;;;;;;5.03;4.70;;;30.70;99.90;;;;;;5074168;28;20642;-73
2022/08/25 11:28:15;;;;;;;5.03;4.73;;;31.50;99.90;;;;;;5073917;28;21280;-73
2022/08/25 11:30:43;;;;;;;5.33;4.93;;;32.10;99.90;;;;;;5073610;28;20633;-73
2022/08/25 11:33:18;;;;;;;5.70;5.30;;;31.70;99.90;;;;;;5074129;28;20585;-71
2022/08/25 11:36:34;;;;;;;6.07;5.33;;;31.90;99.90;;;;;;5073027;28;20625;-71
2022/08/25 11:39:23;;;;;;;5.43;4.87;;;32.20;99.90;;;;;;5065857;28;20631;-72
2022/08/25 11:42:16;;;;;;;5.30;4.90;;;31.60;99.90;;;;;;5073766;28;20632;-72
2022/08/25 11:45:12;;;;;;;5.23;4.80;;;31.00;99.90;;;;;;5057586;28;20619;-72
2022/08/25 11:48:11;;;;;;;5.50;4.87;;;31.40;99.90;;;;;;5060397;28;20691;-73
2022/08/25 11:50:59;;;;;;;5.53;5.03;;;31.90;99.90;;;;;;5073790;28;20574;-72
2022/08/25 11:54:06;;;;;;;4.63;4.23;;;31.20;99.90;;;;;;5073812;28;20586;-72
2022/08/25 11:56:37;;;;;;;4.93;4.53;;;31.90;99.90;;;;;;5040041;28;20618;-73
2022/08/25 11:59:04;;;;;;;5.80;4.80;;;32.60;99.90;;;;;;5071873;28;20687;-73
2022/08/25 12:01:39;;;;;;;4.67;4.30;;;33.40;99.90;;;;;;5073278;28;20622;-73
2022/08/25 12:04:40;;;;;;;5.10;4.60;;;33.20;99.90;;;;;;5073098;28;20645;-72
2022/08/25 12:07:09;;;;;;;5.00;4.50;;;33.70;99.90;;;;;;5070495;28;20634;-72
2022/08/25 12:09:54;;;;;;;4.83;4.43;;;33.80;99.90;;;;;;5072738;28;20653;-73
2022/08/25 12:12:37;;;;;;;5.70;4.80;;;34.30;99.90;;;;;;5073134;28;20574;-72
2022/08/25 12:15:37;;;;;;;5.43;4.93;;;33.60;99.90;;;;;;5073512;28;20641;-72
2022/08/25 12:18:39;;;;;;;5.10;4.70;;;32.70;99.90;;;;;;5073200;28;20577;-72
2022/08/25 12:21:05;;;;;;;4.53;4.23;;;32.60;99.90;;;;;;5065467;28;20637;-72
2022/08/25 12:24:01;;;;;;;5.40;4.90;;;33.00;99.90;;;;;;5073045;28;21105;-72
2022/08/25 12:26:49;;;;;;;7.30;5.20;;;33.20;99.90;;;;;;5072888;28;20618;-72
2022/08/25 12:29:42;;;;;;;4.87;4.53;;;34.30;99.90;;;;;;5072849;28;20589;-72
2022/08/25 12:32:39;;;;;;;5.07;4.77;;;34.50;99.90;;;;;;5073029;28;20934;-72
2022/08/25 12:35:21;;;;;;;5.07;4.67;;;34.30;99.90;;;;;;5072856;28;20673;-72
2022/08/25 12:38:00;;;;;;;5.20;4.90;;;34.20;99.90;;;;;;5073054;28;20586;-72
2022/08/25 12:40:53;;;;;;;5.10;4.80;;;33.80;99.90;;;;;;5072815;28;20582;-72
2022/08/25 12:43:28;;;;;;;4.67;4.37;;;33.50;99.90;;;;;;5072637;28;21282;-72
2022/08/25 12:46:29;;;;;;;4.93;4.63;;;33.70;99.90;;;;;;5073876;28;20644;-72
2022/08/25 12:49:01;;;;;;;4.97;4.57;;;34.50;99.90;;;;;;5077221;28;20702;-73
2022/08/25 12:51:52;;;;;;;6.07;4.80;;;34.50;99.90;;;;;;5076924;28;20645;-73
2022/08/25 12:54:28;;;;;;;4.93;4.53;;;35.30;99.90;;;;;;5076464;28;20673;-73
2022/08/25 12:57:02;;;;;;;4.97;4.67;;;35.30;99.90;;;;;;5076470;28;20589;-73
2022/08/25 12:59:38;;;;;;;5.30;5.00;;;34.80;99.90;;;;;;5076927;28;20651;-73
2022/08/25 13:02:40;;;;;;;6.80;5.53;;;34.80;99.90;;;;;;5076821;28;20614;-73
2022/08/25 13:05:41;;;;;;;6.10;5.47;;;34.10;99.90;;;;;;5076161;28;20657;-72
2022/08/25 13:09:12;;;;;;;5.10;4.80;;;34.40;99.90;;;;;;5076584;28;20578;-72
2022/08/25 13:11:51;;;;;;;5.17;4.53;;;34.50;99.90;;;;;;5014296;28;20972;-72
2022/08/25 13:14:38;;;;;;;4.97;4.33;;;34.70;99.90;;;;;;5068433;28;21022;-73
2022/08/25 13:17:07;;;;;;;5.00;4.53;;;35.50;99.90;;;;;;5076226;28;20578;-73
2022/08/25 13:19:34;;;;;;;5.70;4.60;;;36.50;99.90;;;;;;5076135;28;20583;-72
2022/08/25 13:22:09;;;;;;;5.13;4.70;;;36.50;99.90;;;;;;5076495;28;20564;-73
2022/08/25 13:24:42;;;;;;;4.77;4.30;;;36.60;99.90;;;;;;5075896;28;21002;-73
2022/08/25 13:27:19;;;;;;;5.87;4.80;;;34.80;99.90;;;;;;5075428;28;21025;-73